首页
METAR-TAF:

METAR-TAF

机场 :

澤西島,

纬度: 49-13N, 经度: 002-12W, 海拔: 84米

当前天气观测

该预报发布于12分钟前的23:50 UTC
风速8节,风向
温度 12°C
湿度 71%
气压 1024 hPa
能见度10公里或以上

METAR: EGJJ 072350Z AUTO 10008KT 9999 NCD 12/07 Q1024

时间: 01:02 (00:02 UTC)

预报

该预报发布于1小时和6分钟前的22:56 UTC
预报有效从08日的 00点(UTC)到 08日的 09点(UTC)
风速7节,风向
能见度10公里或以上
散云层高于4500英尺
几率 30% :
短暂存在
从 08日的 04点(UTC)到 08日的 09点(UTC)
能見度: 2000
多云层高于200英尺
轻雾

TAF: EGJJ 072256Z 0800/0809 08007KT 9999 SCT045 PROB30 TEMPO 0804/0809 2000 BR BKN002

超过4000个机场的气象观测和天气预报(METAR&TAF报告)。

可查询的气象台以黄色和红色小点在地图上表示。

将鼠标移到小点上方,可查看气象台名称。

然后点击查看天气观测和预报。

如需切换地图:点击带黑十字的绿色按钮放大地图;点击带横线的绿色按钮缩小地图;或者点击绿色箭头查看邻近地区的地图。


METAR-TAF: